Costa Luminosa — ICGU — position and weather

sailwx.info

Track history (hours):
 
Tides and Currents Weather Stations Pressure Air Temp Water Temp Dewpoint Dewpoint Depression Visibility Wind Speed Wind Dir Waves Ship Positions

Costa Luminosa

Last reported at 2016-Jan-30 02:10 UTC. Time now 2016-Feb-14 23:07 UTC.
Position S 34°48' W 057°28'.
Warning: this ship's position is 15 days out of date.

Length 291 m; draft 8.1 m.

Type: Passenger vessel. MMSI: 247257900.

Date/timePositionNaut miles runAvg speedWind from/ knotsBaromVisibWave heightAir tempDewpointWater temp
2016-Jan-30 02:10S 34°48' W 057°28'814.0
2016-Jan-30 01:33S 34°45' W 057°38'1211.8
2016-Jan-30 00:34S 34°43' W 057°52'1111.3
2016-Jan-29 23:33S 34°39' W 058°05'1211.6
2016-Jan-29 22:33S 34°36' W 058°18'3 2.8
2016-Jan-29 21:23S 34°35' W 058°22'0 0.0
2016-Jan-29 20:32S 34°35' W 058°22'0 0.0
2016-Jan-29 19:29S 34°35' W 058°22'0 0.0
2016-Jan-29 18:29S 34°35' W 058°22'0 0.0
2016-Jan-29 17:20S 34°35' W 058°22'0 0.0
2016-Jan-29 16:32S 34°35' W 058°22'0 0.0
2016-Jan-29 15:32S 34°35' W 058°22'0 0.0
2016-Jan-29 13:29S 34°35' W 058°22'0 0.0
2016-Jan-29 12:11S 34°35' W 058°22'0 0.0
2016-Jan-29 11:05S 34°35' W 058°22'0 0.0
2016-Jan-29 03:29S 34°35' W 058°22'0 0.0
2016-Jan-29 02:14S 34°35' W 058°22'0 0.0
2016-Jan-29 01:32S 34°35' W 058°22'0 0.0
2016-Jan-28 21:14S 34°35' W 058°22'0 0.0
2016-Jan-28 20:32S 34°35' W 058°22'0 0.0
2016-Jan-28 19:32S 34°35' W 058°22'0 0.0
2016-Jan-28 18:32S 34°35' W 058°22'0 0.0
2016-Jan-28 17:26S 34°35' W 058°22'0 0.0
2016-Jan-28 11:32S 34°35' W 058°22'0 0.3
2016-Jan-28 10:33S 34°35' W 058°22'5 4.5
2016-Jan-28 09:31S 34°36' W 058°16'1111.9
2016-Jan-28 08:33S 34°40' W 058°03'1111.6
2016-Jan-28 07:33S 34°44' W 057°50'1010.2
2016-Jan-28 06:33S 34°45' W 057°38'1714.3
2016-Jan-28 05:23S 34°53' W 057°20'1214.5
2016-Jan-28 04:33S 35°02' W 057°10'  
2016-Jan-22 00:05S 13°23' W 038°34'1018.3
2016-Jan-21 23:33S 13°13' W 038°34'1615.5
2016-Jan-21 22:33S 12°58' W 038°33'2 2.1
2016-Jan-21 21:28S 12°58' W 038°31'0 0.0
2016-Jan-21 20:28S 12°58' W 038°31'0 0.0
2016-Jan-21 19:28S 12°58' W 038°31'0 0.0
2016-Jan-21 18:28S 12°58' W 038°31'0 0.0
2016-Jan-21 17:28S 12°58' W 038°31'0 0.0
2016-Jan-21 16:28S 12°58' W 038°31'0 0.0
2016-Jan-21 15:28S 12°58' W 038°31'0 0.0
2016-Jan-21 14:28S 12°58' W 038°31'0 0.0
2016-Jan-21 13:28S 12°58' W 038°31'0 0.0
2016-Jan-21 12:28S 12°58' W 038°31'0 0.0
2016-Jan-21 11:28S 12°58' W 038°31'0 0.0
2016-Jan-21 10:33S 12°58' W 038°31'2 2.2
2016-Jan-21 09:30S 12°58' W 038°33'9 9.8
2016-Jan-21 08:33S 13°08' W 038°33'1312.0
2016-Jan-21 07:28S 13°15' W 038°22'  
Track history (hours):
 
Tides and Currents Weather Stations Pressure Air Temp Water Temp Dewpoint Dewpoint Depression Visibility Wind Speed Wind Dir Waves Ship Positions

Costa Luminosa

Last reported at 2016-Jan-30 02:10 UTC. Time now 2016-Feb-14 23:07 UTC.
Position S 34°48' W 057°28'.
Warning: this ship's position is 15 days out of date.

Length 291 m; draft 8.1 m.

Type: Passenger vessel. MMSI: 247257900.

Date/timePositionNaut miles runAvg speedWind from/ knotsBaromVisibWave heightAir tempDewpointWater temp
2016-Jan-30 02:10S 34°48' W 057°28'814.0
2016-Jan-30 01:33S 34°45' W 057°38'1211.8
2016-Jan-30 00:34S 34°43' W 057°52'1111.3
2016-Jan-29 23:33S 34°39' W 058°05'1211.6
2016-Jan-29 22:33S 34°36' W 058°18'3 2.8
2016-Jan-29 21:23S 34°35' W 058°22'0 0.0
2016-Jan-29 20:32S 34°35' W 058°22'0 0.0
2016-Jan-29 19:29S 34°35' W 058°22'0 0.0
2016-Jan-29 18:29S 34°35' W 058°22'0 0.0
2016-Jan-29 17:20S 34°35' W 058°22'0 0.0
2016-Jan-29 16:32S 34°35' W 058°22'0 0.0
2016-Jan-29 15:32S 34°35' W 058°22'0 0.0
2016-Jan-29 13:29S 34°35' W 058°22'0 0.0
2016-Jan-29 12:11S 34°35' W 058°22'0 0.0
2016-Jan-29 11:05S 34°35' W 058°22'0 0.0
2016-Jan-29 03:29S 34°35' W 058°22'0 0.0
2016-Jan-29 02:14S 34°35' W 058°22'0 0.0
2016-Jan-29 01:32S 34°35' W 058°22'0 0.0
2016-Jan-28 21:14S 34°35' W 058°22'0 0.0
2016-Jan-28 20:32S 34°35' W 058°22'0 0.0
2016-Jan-28 19:32S 34°35' W 058°22'0 0.0
2016-Jan-28 18:32S 34°35' W 058°22'0 0.0
2016-Jan-28 17:26S 34°35' W 058°22'0 0.0
2016-Jan-28 11:32S 34°35' W 058°22'0 0.3
2016-Jan-28 10:33S 34°35' W 058°22'5 4.5
2016-Jan-28 09:31S 34°36' W 058°16'1111.9
2016-Jan-28 08:33S 34°40' W 058°03'1111.6
2016-Jan-28 07:33S 34°44' W 057°50'1010.2
2016-Jan-28 06:33S 34°45' W 057°38'1714.3
2016-Jan-28 05:23S 34°53' W 057°20'1214.5
2016-Jan-28 04:33S 35°02' W 057°10'  
2016-Jan-22 00:05S 13°23' W 038°34'1018.3
2016-Jan-21 23:33S 13°13' W 038°34'1615.5
2016-Jan-21 22:33S 12°58' W 038°33'2 2.1
2016-Jan-21 21:28S 12°58' W 038°31'0 0.0
2016-Jan-21 20:28S 12°58' W 038°31'0 0.0
2016-Jan-21 19:28S 12°58' W 038°31'0 0.0
2016-Jan-21 18:28S 12°58' W 038°31'0 0.0
2016-Jan-21 17:28S 12°58' W 038°31'0 0.0
2016-Jan-21 16:28S 12°58' W 038°31'0 0.0
2016-Jan-21 15:28S 12°58' W 038°31'0 0.0
2016-Jan-21 14:28S 12°58' W 038°31'0 0.0
2016-Jan-21 13:28S 12°58' W 038°31'0 0.0
2016-Jan-21 12:28S 12°58' W 038°31'0 0.0
2016-Jan-21 11:28S 12°58' W 038°31'0 0.0
2016-Jan-21 10:33S 12°58' W 038°31'2 2.2
2016-Jan-21 09:30S 12°58' W 038°33'9 9.8
2016-Jan-21 08:33S 13°08' W 038°33'1312.0
2016-Jan-21 07:28S 13°15' W 038°22'  

Dump ship's entire track history